Drummonds, Tennessee
Current Conditions -  °F | °C
As of 6:50 PM on Sunday 25 Jan 2015 (Local Time) from KNQA Reporting Station
Overcast Overcast  
Wind Chill: 40°   Ceiling: 3800
Heat Index: 46°   Visibility: 10mi
Dew Point: 39°   Wind: 15mph
Humidity: 76%   Direction: 280°W
Pressure: 29.83"   Gusts: NA
Location:  35.46°N, 89.91°W
Report Text: KNQA 260050Z 28013KT 10SM SCT030 BKN038 OVC065 08/04 A2983
Loading
Personal Weather Stations






























Interactive Weather Map New forecast layout! Learn more

10-Day Weather Forecast

Advertisements
Track Severe Weather on mobile